createdAt,value
2023-02-01T00:00:50.777Z,1.03
2023-02-01T00:03:20.003Z,1.00
2023-02-01T00:08:39.593Z,1.23
2023-02-01T00:11:10.000Z,1.10
2023-02-01T00:13:38.988Z,0.90
2023-02-01T00:16:06.457Z,1.00
2023-02-01T00:21:18.129Z,1.07
2023-02-01T00:23:44.841Z,0.97
2023-02-01T00:26:17.875Z,1.00
2023-02-01T00:28:44.572Z,0.90
2023-02-01T00:31:11.236Z,1.37
2023-02-01T00:33:37.918Z,0.70
2023-02-01T00:36:05.435Z,1.40
2023-02-01T00:38:34.934Z,0.90
2023-02-01T00:41:05.102Z,0.80
2023-02-01T00:46:16.648Z,0.87
2023-02-01T00:51:28.388Z,0.53
2023-02-01T00:56:40.099Z,0.70
2023-02-01T00:59:06.691Z,0.63
2023-02-01T01:01:33.318Z,0.70
2023-02-01T01:04:00.028Z,0.90
2023-02-01T01:09:15.349Z,0.67
2023-02-01T01:14:26.183Z,1.40
2023-02-01T01:19:36.886Z,0.83
2023-02-01T01:22:03.569Z,0.93
2023-02-01T01:24:32.515Z,1.23
2023-02-01T01:26:59.308Z,0.97
2023-02-01T01:32:10.841Z,0.93
2023-02-01T01:37:22.015Z,0.90
2023-02-01T01:39:48.629Z,1.00
2023-02-01T01:42:16.553Z,1.13
2023-02-01T02:16:38.985Z,1.50
2023-02-01T02:19:13.915Z,1.10
2023-02-01T02:22:03.207Z,1.57
2023-02-01T02:24:35.169Z,1.13
2023-02-01T02:27:04.091Z,1.13
2023-02-01T02:29:39.595Z,1.70
2023-02-01T02:32:21.330Z,1.00
2023-02-01T02:34:57.410Z,1.37
2023-02-01T02:40:12.863Z,0.93
2023-02-01T02:43:07.660Z,1.10
2023-02-01T02:46:02.904Z,0.40
2023-02-01T02:51:35.335Z,0.40
2023-02-01T02:54:33.527Z,0.50
2023-02-01T02:57:19.246Z,0.60
2023-02-01T03:00:05.314Z,0.70
2023-02-01T03:02:51.585Z,0.57
2023-02-01T03:08:10.040Z,1.07
2023-02-01T03:10:55.967Z,1.30
2023-02-01T03:13:24.031Z,1.23
2023-02-01T03:15:50.598Z,1.20
2023-02-01T03:21:27.214Z,1.00
2023-02-01T03:26:40.950Z,0.60
2023-02-01T03:29:18.642Z,1.70
2023-02-01T03:31:45.335Z,1.10
2023-02-01T03:34:12.455Z,0.83
2023-02-01T03:36:42.217Z,1.37
2023-02-01T03:39:25.988Z,1.00
2023-02-01T03:41:54.436Z,0.53
2023-02-01T03:44:47.234Z,0.70
2023-02-01T03:50:06.841Z,0.63
2023-02-01T03:52:43.649Z,0.63
2023-02-01T03:55:11.338Z,1.07
2023-02-01T04:00:29.974Z,1.23
2023-02-01T04:02:58.188Z,1.70
2023-02-01T04:05:24.873Z,1.47
2023-02-01T04:08:02.027Z,1.80
2023-02-01T04:10:28.615Z,1.00
2023-02-01T04:12:55.165Z,1.63
2023-02-01T04:18:05.979Z,1.33
2023-02-01T04:23:16.806Z,1.23
2023-02-01T04:28:27.392Z,2.17
2023-02-01T04:33:38.225Z,1.40
2023-02-01T04:38:49.836Z,1.13
2023-02-01T04:44:04.061Z,1.33
2023-02-01T04:49:14.995Z,1.60
2023-02-01T04:54:26.307Z,1.10
2023-02-01T04:59:36.822Z,2.80
2023-02-01T05:04:50.092Z,2.30
2023-02-01T05:10:00.557Z,1.47
2023-02-01T05:12:59.267Z,1.40
2023-02-01T05:15:25.922Z,1.40
2023-02-01T05:17:52.441Z,1.20
2023-02-01T05:20:19.169Z,0.80
2023-02-01T05:22:45.733Z,1.50
2023-02-01T05:25:12.381Z,1.47
2023-02-01T05:30:23.798Z,1.10
2023-02-01T05:32:51.798Z,1.43
2023-02-01T05:35:18.465Z,1.80
2023-02-01T05:37:45.024Z,1.40
2023-02-01T05:42:55.804Z,0.87
2023-02-01T05:45:22.660Z,1.70
2023-02-01T05:47:49.343Z,1.60
2023-02-01T05:50:17.584Z,0.97
2023-02-01T05:52:44.415Z,1.13
2023-02-01T05:55:11.171Z,2.13
2023-02-01T05:57:38.264Z,2.77
2023-02-01T06:00:05.884Z,2.30
2023-02-01T06:02:39.130Z,1.87
2023-02-01T06:05:06.122Z,0.50
2023-02-01T06:07:33.629Z,1.20
2023-02-01T06:10:00.488Z,2.20
2023-02-01T06:12:29.306Z,2.00
2023-02-01T06:14:56.009Z,1.43
2023-02-01T06:17:22.606Z,1.13
2023-02-01T06:19:49.549Z,2.50
2023-02-01T06:22:16.137Z,1.37
2023-02-01T06:24:43.009Z,1.80
2023-02-01T06:27:10.501Z,1.80
2023-02-01T06:29:37.201Z,1.97
2023-02-01T06:32:04.235Z,1.90
2023-02-01T06:34:30.925Z,2.23
2023-02-01T06:36:57.524Z,2.03
2023-02-01T06:39:24.294Z,2.27
2023-02-01T06:41:50.998Z,1.43
2023-02-01T06:44:17.821Z,2.93
2023-02-01T06:46:44.427Z,2.30
2023-02-01T06:49:11.264Z,1.87
2023-02-01T06:51:37.859Z,1.37
2023-02-01T06:54:04.566Z,1.50
2023-02-01T06:56:32.515Z,1.57
2023-02-01T06:58:59.063Z,1.70
2023-02-01T07:01:25.597Z,1.90
2023-02-01T07:03:52.506Z,1.53
2023-02-01T07:06:19.231Z,2.40
2023-02-01T07:08:46.354Z,2.20
2023-02-01T07:13:59.460Z,1.27
2023-02-01T07:16:26.155Z,2.50
2023-02-01T07:18:53.115Z,2.83
2023-02-01T07:21:20.323Z,2.57
2023-02-01T07:26:31.788Z,2.67
2023-02-01T07:31:42.543Z,2.27
2023-02-01T07:34:09.131Z,1.63
2023-02-01T07:36:37.291Z,2.57
2023-02-01T07:39:04.423Z,2.47
2023-02-01T07:41:31.083Z,2.07
2023-02-01T07:43:57.866Z,3.43
2023-02-01T07:46:24.462Z,2.90
2023-02-01T07:48:51.102Z,2.17
2023-02-01T07:51:17.886Z,2.40
2023-02-01T07:53:44.654Z,3.07
2023-02-01T07:56:15.313Z,3.13
2023-02-01T07:58:41.953Z,2.50
2023-02-01T08:01:21.189Z,3.03
2023-02-01T08:03:48.754Z,2.60
2023-02-01T08:06:15.401Z,1.77
2023-02-01T08:08:50.263Z,2.87
2023-02-01T08:11:27.409Z,2.57
2023-02-01T08:14:33.455Z,3.23
2023-02-01T08:17:00.027Z,2.03
2023-02-01T08:19:26.582Z,2.63
2023-02-01T08:24:41.458Z,2.20
2023-02-01T08:27:08.895Z,2.10
2023-02-01T08:29:35.664Z,1.70
2023-02-01T08:32:06.116Z,3.70
2023-02-01T08:37:17.641Z,3.23
2023-02-01T08:42:50.893Z,1.60
2023-02-01T08:48:03.566Z,3.37
2023-02-01T08:50:33.469Z,2.70
2023-02-01T08:53:00.202Z,3.50
2023-02-01T08:55:27.650Z,1.73
2023-02-01T08:57:54.754Z,3.00
2023-02-01T09:00:21.919Z,1.90
2023-02-01T09:02:49.075Z,3.00
2023-02-01T09:08:02.351Z,2.10
2023-02-01T09:10:35.196Z,1.83
2023-02-01T09:13:02.340Z,2.30
2023-02-01T09:15:29.252Z,2.00
2023-02-01T09:17:56.119Z,2.90
2023-02-01T09:20:25.463Z,1.57
2023-02-01T09:22:53.090Z,2.53
2023-02-01T09:25:19.850Z,2.10
2023-02-01T09:27:46.930Z,2.40
2023-02-01T09:30:13.731Z,2.20
2023-02-01T09:32:40.562Z,2.40
2023-02-01T09:35:07.435Z,2.10
2023-02-01T09:37:34.400Z,1.70
2023-02-01T09:40:01.151Z,2.67
2023-02-01T09:42:36.975Z,2.30
2023-02-01T09:45:03.656Z,2.20
2023-02-01T09:47:30.454Z,1.90
2023-02-01T09:49:58.809Z,1.37
2023-02-01T09:52:27.784Z,1.67
2023-02-01T09:58:02.308Z,1.77
2023-02-01T10:00:35.073Z,1.73
2023-02-01T10:03:02.081Z,1.83
2023-02-01T10:08:49.589Z,1.23
2023-02-01T10:11:23.052Z,2.23
2023-02-01T10:13:49.764Z,2.70
2023-02-01T10:16:19.509Z,2.87
2023-02-01T10:18:46.296Z,2.50
2023-02-01T10:21:12.982Z,2.17
2023-02-01T10:23:39.913Z,1.87
2023-02-01T10:26:13.897Z,1.60
2023-02-01T10:28:40.500Z,1.50
2023-02-01T10:31:07.284Z,1.70
2023-02-01T10:33:43.769Z,1.90
2023-02-01T10:36:15.220Z,1.93
2023-02-01T10:38:41.867Z,2.77
2023-02-01T10:41:13.756Z,2.27
2023-02-01T10:43:40.507Z,2.40
2023-02-01T10:46:07.802Z,2.60
2023-02-01T10:48:34.724Z,2.50
2023-02-01T10:51:02.123Z,2.43
2023-02-01T10:53:39.395Z,2.70
2023-02-01T10:56:09.824Z,1.93
2023-02-01T10:58:38.413Z,2.00
2023-02-01T11:03:53.317Z,1.47
2023-02-01T11:06:27.511Z,2.30
2023-02-01T11:08:55.411Z,1.90
2023-02-01T11:11:22.371Z,1.43
2023-02-01T11:17:01.321Z,0.83
2023-02-01T11:19:28.305Z,1.77
2023-02-01T11:21:55.686Z,0.60
2023-02-01T11:27:27.106Z,1.67
2023-02-01T11:30:00.931Z,0.70
2023-02-01T11:32:27.663Z,1.10
2023-02-01T11:34:55.461Z,0.90
2023-02-01T11:37:29.224Z,1.13
2023-02-01T11:39:56.875Z,1.33
2023-02-01T11:42:23.623Z,1.10
2023-02-01T11:47:40.881Z,1.10
2023-02-01T11:53:16.806Z,1.27
2023-02-01T11:55:46.563Z,1.10
2023-02-01T11:58:17.172Z,2.27
2023-02-01T12:00:47.129Z,1.80
2023-02-01T12:03:26.165Z,1.70
2023-02-01T12:09:01.263Z,1.57
2023-02-01T12:11:46.872Z,1.13
2023-02-01T12:14:22.403Z,1.40
2023-02-01T12:17:08.055Z,1.83
2023-02-01T12:19:50.107Z,2.13
2023-02-01T12:22:16.802Z,0.90
2023-02-01T12:24:48.596Z,1.47
2023-02-01T12:27:33.641Z,2.33
2023-02-01T12:30:19.630Z,1.90
2023-02-01T12:32:59.000Z,0.70
2023-02-01T12:35:25.902Z,1.60
2023-02-01T12:37:56.864Z,1.60
2023-02-01T12:40:33.379Z,0.93
2023-02-01T12:43:04.546Z,1.67
2023-02-01T12:45:44.960Z,1.43
2023-02-01T12:48:29.211Z,1.10
2023-02-01T12:53:47.997Z,0.90
2023-02-01T12:56:20.268Z,1.03
2023-02-01T12:58:48.004Z,1.10
2023-02-01T13:01:48.379Z,1.00
2023-02-01T13:04:20.374Z,1.60
2023-02-01T13:07:05.711Z,1.60
2023-02-01T13:09:35.112Z,1.80
2023-02-01T13:12:08.433Z,1.93
2023-02-01T13:14:35.066Z,2.37
2023-02-01T13:17:03.729Z,2.90
2023-02-01T13:22:28.594Z,2.60
2023-02-01T13:25:22.254Z,2.13
2023-02-01T13:27:49.215Z,2.23
2023-02-01T13:30:28.067Z,2.93
2023-02-01T13:33:54.834Z,2.30
2023-02-01T13:36:13.744Z,2.40
2023-02-01T13:38:40.361Z,2.70
2023-02-01T13:41:06.967Z,3.23
2023-02-01T13:43:33.618Z,4.20
2023-02-01T13:46:04.548Z,4.07
2023-02-01T13:48:35.187Z,2.97
2023-02-01T13:51:02.057Z,3.80
2023-02-01T13:53:32.633Z,2.83
2023-02-01T13:56:00.390Z,1.70
2023-02-01T13:58:31.529Z,2.40
2023-02-01T14:01:16.750Z,1.37
2023-02-01T14:03:44.487Z,1.63
2023-02-01T14:06:31.068Z,1.30
2023-02-01T14:09:03.912Z,1.93
2023-02-01T14:11:36.580Z,2.27
2023-02-01T14:14:15.690Z,2.27
2023-02-01T14:19:28.244Z,2.43
2023-02-01T14:22:02.377Z,2.43
2023-02-01T14:24:30.306Z,2.17
2023-02-01T14:26:57.381Z,2.30
2023-02-01T14:29:33.155Z,1.67
2023-02-01T14:32:17.746Z,1.80
2023-02-01T14:37:33.073Z,2.20
2023-02-01T14:40:11.931Z,2.60
2023-02-01T14:42:38.603Z,2.00
2023-02-01T14:48:07.519Z,2.33
2023-02-01T14:50:34.570Z,2.40
2023-02-01T14:53:13.888Z,2.40
2023-02-01T14:58:33.173Z,3.57
2023-02-01T15:01:06.700Z,2.33
2023-02-01T15:03:49.685Z,2.43
2023-02-01T15:09:17.188Z,2.30
2023-02-01T15:11:59.379Z,2.87
2023-02-01T15:14:26.474Z,2.00
2023-02-01T15:16:55.991Z,1.90
2023-02-01T15:22:14.805Z,2.00
2023-02-01T15:24:41.903Z,2.50
2023-02-01T15:27:09.956Z,2.13
2023-02-01T15:29:36.692Z,2.00
2023-02-01T15:32:03.429Z,1.27
2023-02-01T15:34:48.937Z,2.40
2023-02-01T15:37:17.150Z,2.50
2023-02-01T15:40:02.627Z,2.43
2023-02-01T15:42:31.270Z,1.83
2023-02-01T15:44:58.000Z,2.43
2023-02-01T15:47:25.408Z,2.93
2023-02-01T15:49:55.020Z,3.10
2023-02-01T15:52:42.502Z,3.53
2023-02-01T15:55:09.980Z,2.80
2023-02-01T15:57:40.867Z,4.00
2023-02-01T16:00:10.100Z,3.13
2023-02-01T16:02:44.988Z,2.93
2023-02-01T16:05:29.949Z,2.67
2023-02-01T16:08:05.454Z,2.90
2023-02-01T16:10:32.506Z,2.93
2023-02-01T16:13:01.262Z,3.57
2023-02-01T16:15:30.468Z,3.50
2023-02-01T16:17:57.083Z,3.60
2023-02-01T16:20:23.739Z,3.90
2023-02-01T16:22:50.444Z,2.77
2023-02-01T16:25:17.072Z,3.70
2023-02-01T16:27:43.670Z,3.63
2023-02-01T16:30:11.153Z,3.20
2023-02-01T16:32:40.629Z,3.30
2023-02-01T16:35:13.446Z,3.00
2023-02-01T16:37:41.400Z,3.03
2023-02-01T16:40:13.591Z,3.97
2023-02-01T16:42:41.899Z,5.97
2023-02-01T16:45:09.563Z,4.30
2023-02-01T16:47:37.321Z,3.87
2023-02-01T16:52:48.775Z,4.90
2023-02-01T16:55:16.861Z,4.27
2023-02-01T16:57:43.793Z,3.90
2023-02-01T17:00:23.177Z,3.80
2023-02-01T17:02:51.025Z,3.53
2023-02-01T17:05:18.034Z,2.67
2023-02-01T17:07:44.768Z,4.10
2023-02-01T17:10:40.803Z,3.93
2023-02-01T17:13:10.153Z,3.70
2023-02-01T17:15:37.429Z,3.13
2023-02-01T17:18:04.423Z,4.07
2023-02-01T17:20:33.111Z,3.90
2023-02-01T17:22:59.898Z,4.83
2023-02-01T17:25:27.294Z,4.03
2023-02-01T17:27:53.959Z,2.57
2023-02-01T17:30:20.793Z,2.87
2023-02-01T17:32:47.665Z,3.60
2023-02-01T17:35:22.815Z,2.87
2023-02-01T17:40:37.259Z,4.07
2023-02-01T17:45:52.808Z,3.43
2023-02-01T17:48:22.731Z,4.10
2023-02-01T17:50:52.605Z,4.13
2023-02-01T17:53:24.670Z,3.60
2023-02-01T17:55:51.432Z,4.10
2023-02-01T17:58:18.244Z,3.03
2023-02-01T18:00:47.111Z,2.83
2023-02-01T18:03:24.453Z,3.03
2023-02-01T18:08:37.792Z,3.97
2023-02-01T18:13:51.071Z,4.53
2023-02-01T18:16:22.561Z,4.57
2023-02-01T18:18:49.520Z,5.40
2023-02-01T18:21:17.564Z,4.87
2023-02-01T18:23:44.503Z,5.07
2023-02-01T18:26:17.787Z,4.67
2023-02-01T18:28:45.350Z,5.87
2023-02-01T18:31:21.109Z,5.40
2023-02-01T18:36:34.336Z,4.67
2023-02-01T18:39:02.407Z,4.43
2023-02-01T18:41:29.159Z,5.60
2023-02-01T18:43:56.034Z,4.47
2023-02-01T18:46:23.084Z,5.17
2023-02-01T18:48:49.962Z,5.03
2023-02-01T18:51:18.850Z,4.83
2023-02-01T18:53:45.753Z,4.00
2023-02-01T18:56:13.202Z,4.17
2023-02-01T18:58:41.038Z,3.77
2023-02-01T19:01:09.177Z,4.30
2023-02-01T19:03:42.761Z,3.63
2023-02-01T19:06:12.620Z,3.97
2023-02-01T19:08:40.656Z,4.07
2023-02-01T19:11:10.439Z,3.47
2023-02-01T19:13:39.943Z,4.30
2023-02-01T19:16:10.375Z,3.10
2023-02-01T19:18:38.178Z,2.53
2023-02-01T19:21:14.035Z,3.70
2023-02-01T19:23:41.084Z,3.43
2023-02-01T19:26:11.664Z,2.10
2023-02-01T19:31:23.520Z,3.53
2023-02-01T19:36:34.742Z,3.43
2023-02-01T19:39:01.368Z,3.00
2023-02-01T19:41:28.603Z,2.20
2023-02-01T19:43:55.575Z,3.40
2023-02-01T19:46:22.452Z,2.40
2023-02-01T19:48:51.287Z,3.00
2023-02-01T19:51:18.050Z,2.90
2023-02-01T19:56:29.474Z,3.63
2023-02-01T19:58:56.770Z,3.80
2023-02-01T20:01:22.780Z,3.60
2023-02-01T20:03:51.842Z,3.83
2023-02-01T20:06:22.803Z,4.13
2023-02-01T20:08:52.809Z,4.50
2023-02-01T20:11:22.359Z,2.67
2023-02-01T20:13:49.341Z,3.90
2023-02-01T20:16:16.495Z,3.30
2023-02-01T20:21:29.082Z,4.10
2023-02-01T20:26:43.494Z,4.07
2023-02-01T20:29:11.984Z,3.90
2023-02-01T20:31:38.978Z,3.23
2023-02-01T20:34:05.862Z,3.73
2023-02-01T20:39:19.342Z,4.23
2023-02-01T20:41:49.490Z,4.07
2023-02-01T20:44:18.077Z,3.90
2023-02-01T20:46:47.133Z,4.40
2023-02-01T20:49:13.982Z,2.60
2023-02-01T20:51:40.620Z,3.57
2023-02-01T20:54:07.905Z,3.23
2023-02-01T20:59:24.961Z,3.67
2023-02-01T21:01:55.134Z,3.00
2023-02-01T21:04:24.484Z,3.20
2023-02-01T21:06:51.762Z,4.33
2023-02-01T21:09:21.980Z,3.70
2023-02-01T21:11:48.821Z,3.57
2023-02-01T21:14:15.549Z,3.97
2023-02-01T21:16:42.452Z,3.30
2023-02-01T21:19:10.175Z,3.73
2023-02-01T21:21:36.826Z,3.77
2023-02-01T21:26:48.418Z,3.50
2023-02-01T21:29:15.512Z,3.20
2023-02-01T21:31:42.596Z,4.17
2023-02-01T21:34:09.958Z,4.50
2023-02-01T21:36:36.752Z,4.47
2023-02-01T21:39:05.038Z,4.40
2023-02-01T21:41:50.692Z,4.77
2023-02-01T21:44:17.559Z,4.40
2023-02-01T21:46:44.703Z,4.50
2023-02-01T21:49:11.662Z,5.43
2023-02-01T21:51:38.915Z,4.40
2023-02-01T21:54:06.195Z,4.00
2023-02-01T21:56:32.857Z,3.90
2023-02-01T21:58:59.659Z,3.60
2023-02-01T22:01:26.419Z,4.00
2023-02-01T22:06:41.695Z,3.90
2023-02-01T22:09:12.163Z,3.07
2023-02-01T22:11:38.749Z,3.87
2023-02-01T22:14:05.348Z,3.93
2023-02-01T22:16:32.601Z,3.40
2023-02-01T22:19:00.366Z,2.80
2023-02-01T22:21:28.510Z,2.50
2023-02-01T22:23:55.397Z,1.40
2023-02-01T22:26:22.297Z,2.30
2023-02-01T22:28:49.648Z,2.30
2023-02-01T22:31:16.422Z,1.87
2023-02-01T22:33:45.362Z,1.60
2023-02-01T22:36:12.349Z,1.83
2023-02-01T22:41:23.712Z,1.60
2023-02-01T22:43:50.414Z,1.77
2023-02-01T22:46:18.188Z,1.43
2023-02-01T22:48:45.129Z,1.60
2023-02-01T22:54:00.066Z,1.57
2023-02-01T22:56:33.348Z,1.90
2023-02-01T22:59:03.754Z,2.00
2023-02-01T23:01:30.451Z,1.70
2023-02-01T23:03:57.742Z,1.60
2023-02-01T23:06:24.742Z,1.90
2023-02-01T23:08:54.305Z,1.53
2023-02-01T23:11:20.980Z,1.70
2023-02-01T23:13:48.107Z,2.07
2023-02-01T23:16:17.247Z,1.93
2023-02-01T23:18:43.871Z,1.50
2023-02-01T23:21:13.700Z,1.70
2023-02-01T23:23:40.379Z,1.30
2023-02-01T23:26:07.028Z,2.10
2023-02-01T23:28:33.674Z,2.03
2023-02-01T23:31:00.469Z,1.80
2023-02-01T23:36:12.040Z,2.37
2023-02-01T23:38:38.611Z,2.00
2023-02-01T23:41:05.755Z,2.73
2023-02-01T23:46:36.632Z,3.30
2023-02-01T23:51:51.574Z,3.27
2023-02-01T23:57:02.548Z,4.87
2023-02-01T23:59:30.609Z,3.77
